sensor_id;sensor_type;location;lat;lon;timestamp;P1;durP1;ratioP1;P2;durP2;ratioP2
52106;SDS011;38105;52.968;5.974;2023-04-15T00:02:12;13.75;;;4.57;;
52106;SDS011;38105;52.968;5.974;2023-04-15T00:04:43;12.50;;;4.97;;
52106;SDS011;38105;52.968;5.974;2023-04-15T00:07:09;9.70;;;4.20;;
52106;SDS011;38105;52.968;5.974;2023-04-15T00:09:35;10.57;;;4.43;;
52106;SDS011;38105;52.968;5.974;2023-04-15T00:12:01;10.85;;;4.97;;
52106;SDS011;38105;52.968;5.974;2023-04-15T00:14:27;11.10;;;4.95;;
52106;SDS011;38105;52.968;5.974;2023-04-15T00:16:53;11.02;;;4.50;;
52106;SDS011;38105;52.968;5.974;2023-04-15T00:19:20;12.20;;;5.07;;
52106;SDS011;38105;52.968;5.974;2023-04-15T00:21:46;11.13;;;4.68;;
52106;SDS011;38105;52.968;5.974;2023-04-15T00:24:11;10.90;;;5.32;;
52106;SDS011;38105;52.968;5.974;2023-04-15T00:26:37;11.82;;;5.20;;
52106;SDS011;38105;52.968;5.974;2023-04-15T00:29:05;12.73;;;5.35;;
52106;SDS011;38105;52.968;5.974;2023-04-15T00:31:31;12.20;;;5.13;;
52106;SDS011;38105;52.968;5.974;2023-04-15T00:33:56;12.13;;;5.35;;
52106;SDS011;38105;52.968;5.974;2023-04-15T00:36:22;14.07;;;5.88;;
52106;SDS011;38105;52.968;5.974;2023-04-15T00:38:48;12.18;;;5.53;;
52106;SDS011;38105;52.968;5.974;2023-04-15T00:41:14;12.52;;;5.28;;
52106;SDS011;38105;52.968;5.974;2023-04-15T00:43:39;11.13;;;5.97;;
52106;SDS011;38105;52.968;5.974;2023-04-15T00:46:06;10.27;;;5.80;;
52106;SDS011;38105;52.968;5.974;2023-04-15T00:48:33;9.35;;;5.32;;
52106;SDS011;38105;52.968;5.974;2023-04-15T00:51:00;11.75;;;5.13;;
52106;SDS011;38105;52.968;5.974;2023-04-15T00:53:26;16.80;;;5.43;;
52106;SDS011;38105;52.968;5.974;2023-04-15T00:55:51;16.42;;;5.70;;
52106;SDS011;38105;52.968;5.974;2023-04-15T00:58:18;12.20;;;6.03;;
52106;SDS011;38105;52.968;5.974;2023-04-15T01:00:43;12.45;;;5.32;;
52106;SDS011;38105;52.968;5.974;2023-04-15T01:03:10;10.93;;;5.50;;
52106;SDS011;38105;52.968;5.974;2023-04-15T01:05:36;14.73;;;5.80;;
52106;SDS011;38105;52.968;5.974;2023-04-15T01:08:03;17.52;;;6.72;;
52106;SDS011;38105;52.968;5.974;2023-04-15T01:10:29;11.88;;;6.35;;
52106;SDS011;38105;52.968;5.974;2023-04-15T01:12:55;12.68;;;6.00;;
52106;SDS011;38105;52.968;5.974;2023-04-15T01:15:22;11.85;;;6.03;;
52106;SDS011;38105;52.968;5.974;2023-04-15T01:17:48;10.85;;;5.78;;
52106;SDS011;38105;52.968;5.974;2023-04-15T01:20:14;13.85;;;6.70;;
52106;SDS011;38105;52.968;5.974;2023-04-15T01:22:40;14.23;;;6.40;;
52106;SDS011;38105;52.968;5.974;2023-04-15T01:25:10;14.85;;;6.93;;
52106;SDS011;38105;52.968;5.974;2023-04-15T01:27:40;15.02;;;6.55;;
52106;SDS011;38105;52.968;5.974;2023-04-15T01:30:09;11.57;;;6.80;;
52106;SDS011;38105;52.968;5.974;2023-04-15T01:32:35;14.70;;;6.70;;
52106;SDS011;38105;52.968;5.974;2023-04-15T01:35:01;13.68;;;6.88;;
52106;SDS011;38105;52.968;5.974;2023-04-15T01:37:27;13.98;;;7.38;;
52106;SDS011;38105;52.968;5.974;2023-04-15T01:39:53;14.77;;;7.10;;
52106;SDS011;38105;52.968;5.974;2023-04-15T01:42:20;15.43;;;7.45;;
52106;SDS011;38105;52.968;5.974;2023-04-15T01:44:46;10.85;;;7.07;;
52106;SDS011;38105;52.968;5.974;2023-04-15T01:47:12;14.60;;;6.95;;
52106;SDS011;38105;52.968;5.974;2023-04-15T01:49:38;10.73;;;7.38;;
52106;SDS011;38105;52.968;5.974;2023-04-15T01:52:03;14.45;;;7.13;;
52106;SDS011;38105;52.968;5.974;2023-04-15T01:54:29;13.77;;;7.32;;
52106;SDS011;38105;52.968;5.974;2023-04-15T01:56:55;14.57;;;7.55;;
52106;SDS011;38105;52.968;5.974;2023-04-15T01:59:21;16.67;;;7.88;;
52106;SDS011;38105;52.968;5.974;2023-04-15T02:01:46;14.98;;;7.95;;
52106;SDS011;38105;52.968;5.974;2023-04-15T02:04:12;17.48;;;8.57;;
52106;SDS011;38105;52.968;5.974;2023-04-15T02:06:42;14.35;;;8.05;;
52106;SDS011;38105;52.968;5.974;2023-04-15T02:09:08;13.68;;;7.85;;
52106;SDS011;38105;52.968;5.974;2023-04-15T02:11:34;15.02;;;8.40;;
52106;SDS011;38105;52.968;5.974;2023-04-15T02:14:02;16.83;;;9.48;;
52106;SDS011;38105;52.968;5.974;2023-04-15T02:16:31;16.67;;;8.40;;
52106;SDS011;38105;52.968;5.974;2023-04-15T02:18:58;15.75;;;9.43;;
52106;SDS011;38105;52.968;5.974;2023-04-15T02:21:25;15.55;;;9.35;;
52106;SDS011;38105;52.968;5.974;2023-04-15T02:23:51;16.75;;;9.68;;
52106;SDS011;38105;52.968;5.974;2023-04-15T02:26:18;17.27;;;9.00;;
52106;SDS011;38105;52.968;5.974;2023-04-15T02:28:44;15.68;;;9.43;;
52106;SDS011;38105;52.968;5.974;2023-04-15T02:31:10;18.05;;;9.98;;
52106;SDS011;38105;52.968;5.974;2023-04-15T02:33:36;17.70;;;10.15;;
52106;SDS011;38105;52.968;5.974;2023-04-15T02:36:02;15.32;;;9.82;;
52106;SDS011;38105;52.968;5.974;2023-04-15T02:38:28;12.60;;;8.88;;
52106;SDS011;38105;52.968;5.974;2023-04-15T02:40:55;15.88;;;10.07;;
52106;SDS011;38105;52.968;5.974;2023-04-15T02:43:21;16.88;;;10.07;;
52106;SDS011;38105;52.968;5.974;2023-04-15T02:45:47;17.58;;;9.75;;
52106;SDS011;38105;52.968;5.974;2023-04-15T02:48:13;18.27;;;10.75;;
52106;SDS011;38105;52.968;5.974;2023-04-15T02:50:38;18.65;;;10.75;;
52106;SDS011;38105;52.968;5.974;2023-04-15T02:53:05;15.85;;;10.68;;
52106;SDS011;38105;52.968;5.974;2023-04-15T02:55:31;15.18;;;10.60;;
52106;SDS011;38105;52.968;5.974;2023-04-15T02:57:56;18.08;;;10.95;;
52106;SDS011;38105;52.968;5.974;2023-04-15T03:00:24;17.98;;;11.10;;
52106;SDS011;38105;52.968;5.974;2023-04-15T03:02:50;16.70;;;10.82;;
52106;SDS011;38105;52.968;5.974;2023-04-15T03:05:21;15.00;;;10.98;;
52106;SDS011;38105;52.968;5.974;2023-04-15T03:07:50;16.00;;;11.18;;
52106;SDS011;38105;52.968;5.974;2023-04-15T03:10:16;18.17;;;11.88;;
52106;SDS011;38105;52.968;5.974;2023-04-15T03:12:41;18.55;;;12.27;;
52106;SDS011;38105;52.968;5.974;2023-04-15T03:15:07;20.20;;;12.07;;
52106;SDS011;38105;52.968;5.974;2023-04-15T03:17:33;18.42;;;12.82;;
52106;SDS011;38105;52.968;5.974;2023-04-15T03:20:03;23.48;;;12.88;;
52106;SDS011;38105;52.968;5.974;2023-04-15T03:22:32;20.67;;;13.55;;
52106;SDS011;38105;52.968;5.974;2023-04-15T03:24:58;21.10;;;13.10;;
52106;SDS011;38105;52.968;5.974;2023-04-15T03:27:24;15.55;;;12.35;;
52106;SDS011;38105;52.968;5.974;2023-04-15T03:29:50;22.17;;;13.02;;
52106;SDS011;38105;52.968;5.974;2023-04-15T03:32:16;18.67;;;12.35;;
52106;SDS011;38105;52.968;5.974;2023-04-15T03:34:42;20.95;;;13.40;;
52106;SDS011;38105;52.968;5.974;2023-04-15T03:37:07;19.42;;;12.95;;
52106;SDS011;38105;52.968;5.974;2023-04-15T03:39:33;16.77;;;12.50;;
52106;SDS011;38105;52.968;5.974;2023-04-15T03:41:59;18.80;;;12.73;;
52106;SDS011;38105;52.968;5.974;2023-04-15T03:44:25;18.05;;;12.88;;
52106;SDS011;38105;52.968;5.974;2023-04-15T03:46:51;15.45;;;12.18;;
52106;SDS011;38105;52.968;5.974;2023-04-15T03:49:17;20.35;;;13.02;;
52106;SDS011;38105;52.968;5.974;2023-04-15T03:51:44;17.13;;;12.82;;
52106;SDS011;38105;52.968;5.974;2023-04-15T03:54:10;18.13;;;13.35;;
52106;SDS011;38105;52.968;5.974;2023-04-15T03:56:36;21.90;;;12.57;;
52106;SDS011;38105;52.968;5.974;2023-04-15T03:59:02;18.98;;;13.00;;
52106;SDS011;38105;52.968;5.974;2023-04-15T04:01:28;20.67;;;12.98;;
52106;SDS011;38105;52.968;5.974;2023-04-15T04:03:54;21.13;;;13.20;;
52106;SDS011;38105;52.968;5.974;2023-04-15T04:06:20;15.60;;;11.85;;
52106;SDS011;38105;52.968;5.974;2023-04-15T04:08:45;14.63;;;12.20;;
52106;SDS011;38105;52.968;5.974;2023-04-15T04:11:11;20.25;;;13.65;;
52106;SDS011;38105;52.968;5.974;2023-04-15T04:13:37;16.35;;;13.38;;
52106;SDS011;38105;52.968;5.974;2023-04-15T04:16:03;19.65;;;13.35;;
52106;SDS011;38105;52.968;5.974;2023-04-15T04:18:29;19.25;;;12.05;;
52106;SDS011;38105;52.968;5.974;2023-04-15T04:20:56;20.20;;;13.48;;
52106;SDS011;38105;52.968;5.974;2023-04-15T04:23:22;18.30;;;13.05;;
52106;SDS011;38105;52.968;5.974;2023-04-15T04:25:47;18.05;;;13.18;;
52106;SDS011;38105;52.968;5.974;2023-04-15T04:28:13;20.63;;;13.40;;
52106;SDS011;38105;52.968;5.974;2023-04-15T04:30:39;17.33;;;14.30;;
52106;SDS011;38105;52.968;5.974;2023-04-15T04:33:05;19.13;;;13.82;;
52106;SDS011;38105;52.968;5.974;2023-04-15T04:35:31;17.25;;;12.32;;
52106;SDS011;38105;52.968;5.974;2023-04-15T04:37:59;21.25;;;14.52;;
52106;SDS011;38105;52.968;5.974;2023-04-15T04:40:25;14.80;;;12.95;;
52106;SDS011;38105;52.968;5.974;2023-04-15T04:42:51;20.33;;;14.07;;
52106;SDS011;38105;52.968;5.974;2023-04-15T04:45:17;17.98;;;13.52;;
52106;SDS011;38105;52.968;5.974;2023-04-15T04:47:43;21.15;;;13.02;;
52106;SDS011;38105;52.968;5.974;2023-04-15T04:50:09;23.63;;;14.35;;
52106;SDS011;38105;52.968;5.974;2023-04-15T04:52:35;17.73;;;13.00;;
52106;SDS011;38105;52.968;5.974;2023-04-15T04:55:01;18.40;;;12.80;;
52106;SDS011;38105;52.968;5.974;2023-04-15T04:57:27;14.90;;;12.07;;
52106;SDS011;38105;52.968;5.974;2023-04-15T04:59:52;17.58;;;12.50;;
52106;SDS011;38105;52.968;5.974;2023-04-15T05:02:18;18.13;;;12.95;;
52106;SDS011;38105;52.968;5.974;2023-04-15T05:04:44;17.42;;;12.75;;
52106;SDS011;38105;52.968;5.974;2023-04-15T05:07:10;18.25;;;12.85;;
52106;SDS011;38105;52.968;5.974;2023-04-15T05:09:36;17.73;;;12.00;;
52106;SDS011;38105;52.968;5.974;2023-04-15T05:12:02;13.52;;;11.88;;
52106;SDS011;38105;52.968;5.974;2023-04-15T05:14:29;12.82;;;11.13;;
52106;SDS011;38105;52.968;5.974;2023-04-15T05:16:55;18.67;;;12.70;;
52106;SDS011;38105;52.968;5.974;2023-04-15T05:19:20;12.77;;;10.23;;
52106;SDS011;38105;52.968;5.974;2023-04-15T05:21:46;13.73;;;10.27;;
52106;SDS011;38105;52.968;5.974;2023-04-15T05:24:12;14.35;;;11.02;;
52106;SDS011;38105;52.968;5.974;2023-04-15T05:26:37;12.98;;;9.90;;
52106;SDS011;38105;52.968;5.974;2023-04-15T05:29:03;17.48;;;11.73;;
52106;SDS011;38105;52.968;5.974;2023-04-15T05:31:29;13.85;;;10.80;;
52106;SDS011;38105;52.968;5.974;2023-04-15T05:33:54;13.93;;;11.55;;
52106;SDS011;38105;52.968;5.974;2023-04-15T05:36:20;13.30;;;10.75;;
52106;SDS011;38105;52.968;5.974;2023-04-15T05:38:46;13.95;;;11.35;;
52106;SDS011;38105;52.968;5.974;2023-04-15T05:41:11;12.63;;;11.30;;
52106;SDS011;38105;52.968;5.974;2023-04-15T05:43:39;12.90;;;10.70;;
52106;SDS011;38105;52.968;5.974;2023-04-15T05:46:05;14.10;;;11.82;;
52106;SDS011;38105;52.968;5.974;2023-04-15T05:48:31;12.20;;;10.68;;
52106;SDS011;38105;52.968;5.974;2023-04-15T05:50:56;12.40;;;10.65;;
52106;SDS011;38105;52.968;5.974;2023-04-15T05:53:22;13.07;;;10.75;;
52106;SDS011;38105;52.968;5.974;2023-04-15T05:55:48;12.43;;;10.20;;
52106;SDS011;38105;52.968;5.974;2023-04-15T05:58:14;13.13;;;11.52;;
52106;SDS011;38105;52.968;5.974;2023-04-15T06:00:39;11.23;;;9.75;;
52106;SDS011;38105;52.968;5.974;2023-04-15T06:03:06;11.80;;;10.55;;
52106;SDS011;38105;52.968;5.974;2023-04-15T06:05:32;11.60;;;9.13;;
52106;SDS011;38105;52.968;5.974;2023-04-15T06:07:58;9.27;;;8.38;;
52106;SDS011;38105;52.968;5.974;2023-04-15T06:10:24;11.25;;;10.10;;
52106;SDS011;38105;52.968;5.974;2023-04-15T06:12:51;9.65;;;8.38;;
52106;SDS011;38105;52.968;5.974;2023-04-15T06:15:17;10.18;;;9.18;;
52106;SDS011;38105;52.968;5.974;2023-04-15T06:17:43;8.68;;;7.75;;
52106;SDS011;38105;52.968;5.974;2023-04-15T06:20:09;10.82;;;8.73;;
52106;SDS011;38105;52.968;5.974;2023-04-15T06:22:35;9.07;;;7.85;;
52106;SDS011;38105;52.968;5.974;2023-04-15T06:25:03;11.38;;;8.88;;
52106;SDS011;38105;52.968;5.974;2023-04-15T06:27:29;8.93;;;8.02;;
52106;SDS011;38105;52.968;5.974;2023-04-15T06:29:55;9.63;;;8.32;;
52106;SDS011;38105;52.968;5.974;2023-04-15T06:32:20;8.27;;;7.47;;
52106;SDS011;38105;52.968;5.974;2023-04-15T06:34:46;8.98;;;8.07;;
52106;SDS011;38105;52.968;5.974;2023-04-15T06:37:11;8.98;;;8.05;;
52106;SDS011;38105;52.968;5.974;2023-04-15T06:39:40;8.75;;;7.85;;
52106;SDS011;38105;52.968;5.974;2023-04-15T06:42:06;8.88;;;7.80;;
52106;SDS011;38105;52.968;5.974;2023-04-15T06:44:33;9.43;;;8.23;;
52106;SDS011;38105;52.968;5.974;2023-04-15T06:46:58;11.20;;;8.77;;
52106;SDS011;38105;52.968;5.974;2023-04-15T06:49:24;9.13;;;8.23;;
52106;SDS011;38105;52.968;5.974;2023-04-15T06:51:50;9.65;;;8.65;;
52106;SDS011;38105;52.968;5.974;2023-04-15T06:54:16;10.98;;;8.57;;
52106;SDS011;38105;52.968;5.974;2023-04-15T06:56:42;9.35;;;8.38;;
52106;SDS011;38105;52.968;5.974;2023-04-15T06:59:08;11.40;;;8.73;;
52106;SDS011;38105;52.968;5.974;2023-04-15T07:01:34;12.27;;;8.70;;
52106;SDS011;38105;52.968;5.974;2023-04-15T07:03:59;10.77;;;8.65;;
52106;SDS011;38105;52.968;5.974;2023-04-15T07:06:25;9.45;;;8.45;;
52106;SDS011;38105;52.968;5.974;2023-04-15T07:08:51;10.05;;;8.75;;
52106;SDS011;38105;52.968;5.974;2023-04-15T07:11:18;12.10;;;8.38;;
52106;SDS011;38105;52.968;5.974;2023-04-15T07:13:45;11.73;;;9.02;;
52106;SDS011;38105;52.968;5.974;2023-04-15T07:16:10;9.65;;;8.45;;
52106;SDS011;38105;52.968;5.974;2023-04-15T07:18:36;11.02;;;8.30;;
52106;SDS011;38105;52.968;5.974;2023-04-15T07:21:02;11.45;;;8.70;;
52106;SDS011;38105;52.968;5.974;2023-04-15T07:23:27;12.32;;;8.40;;
52106;SDS011;38105;52.968;5.974;2023-04-15T07:25:53;9.30;;;8.30;;
52106;SDS011;38105;52.968;5.974;2023-04-15T07:28:19;9.65;;;7.10;;
52106;SDS011;38105;52.968;5.974;2023-04-15T07:30:45;9.27;;;7.80;;
52106;SDS011;38105;52.968;5.974;2023-04-15T07:33:10;10.25;;;8.05;;
52106;SDS011;38105;52.968;5.974;2023-04-15T07:35:36;8.32;;;7.20;;
52106;SDS011;38105;52.968;5.974;2023-04-15T07:38:02;11.38;;;7.97;;
52106;SDS011;38105;52.968;5.974;2023-04-15T07:40:27;9.45;;;7.15;;
52106;SDS011;38105;52.968;5.974;2023-04-15T07:42:54;12.18;;;7.85;;
52106;SDS011;38105;52.968;5.974;2023-04-15T07:45:21;8.32;;;6.65;;
52106;SDS011;38105;52.968;5.974;2023-04-15T07:47:46;8.27;;;6.75;;
52106;SDS011;38105;52.968;5.974;2023-04-15T07:50:12;9.38;;;7.88;;
52106;SDS011;38105;52.968;5.974;2023-04-15T07:52:39;9.57;;;6.78;;
52106;SDS011;38105;52.968;5.974;2023-04-15T07:55:05;10.23;;;6.75;;
52106;SDS011;38105;52.968;5.974;2023-04-15T07:57:35;9.65;;;6.97;;
52106;SDS011;38105;52.968;5.974;2023-04-15T08:00:01;8.80;;;7.18;;
52106;SDS011;38105;52.968;5.974;2023-04-15T08:02:30;11.73;;;8.10;;
52106;SDS011;38105;52.968;5.974;2023-04-15T08:04:56;9.05;;;8.13;;
52106;SDS011;38105;52.968;5.974;2023-04-15T08:07:22;8.07;;;7.28;;
52106;SDS011;38105;52.968;5.974;2023-04-15T08:09:47;8.90;;;8.00;;
52106;SDS011;38105;52.968;5.974;2023-04-15T08:12:13;8.48;;;6.50;;
52106;SDS011;38105;52.968;5.974;2023-04-15T08:14:39;8.50;;;6.38;;
52106;SDS011;38105;52.968;5.974;2023-04-15T08:17:05;8.07;;;6.03;;
52106;SDS011;38105;52.968;5.974;2023-04-15T08:19:31;7.25;;;5.80;;
52106;SDS011;38105;52.968;5.974;2023-04-15T08:21:57;7.15;;;5.85;;
52106;SDS011;38105;52.968;5.974;2023-04-15T08:24:23;6.00;;;4.68;;
52106;SDS011;38105;52.968;5.974;2023-04-15T08:26:50;5.78;;;5.18;;
52106;SDS011;38105;52.968;5.974;2023-04-15T08:29:16;5.32;;;4.40;;
52106;SDS011;38105;52.968;5.974;2023-04-15T08:31:42;5.35;;;4.00;;
52106;SDS011;38105;52.968;5.974;2023-04-15T08:34:09;6.50;;;4.00;;
52106;SDS011;38105;52.968;5.974;2023-04-15T08:36:36;4.90;;;3.65;;
52106;SDS011;38105;52.968;5.974;2023-04-15T08:39:02;4.18;;;3.42;;
52106;SDS011;38105;52.968;5.974;2023-04-15T08:41:31;5.10;;;3.20;;
52106;SDS011;38105;52.968;5.974;2023-04-15T08:44:07;5.50;;;3.20;;
52106;SDS011;38105;52.968;5.974;2023-04-15T08:46:33;5.78;;;3.25;;
52106;SDS011;38105;52.968;5.974;2023-04-15T08:48:59;5.05;;;3.63;;
52106;SDS011;38105;52.968;5.974;2023-04-15T08:51:27;6.78;;;3.50;;
52106;SDS011;38105;52.968;5.974;2023-04-15T08:53:53;5.68;;;3.40;;
52106;SDS011;38105;52.968;5.974;2023-04-15T08:56:20;4.47;;;3.45;;
52106;SDS011;38105;52.968;5.974;2023-04-15T08:58:48;7.07;;;3.65;;
52106;SDS011;38105;52.968;5.974;2023-04-15T09:01:15;7.78;;;3.50;;
52106;SDS011;38105;52.968;5.974;2023-04-15T09:03:40;4.75;;;3.05;;
52106;SDS011;38105;52.968;5.974;2023-04-15T09:06:06;4.53;;;2.97;;
52106;SDS011;38105;52.968;5.974;2023-04-15T09:08:33;5.00;;;3.22;;
52106;SDS011;38105;52.968;5.974;2023-04-15T09:11:00;5.82;;;2.97;;
52106;SDS011;38105;52.968;5.974;2023-04-15T09:13:27;6.45;;;3.35;;
52106;SDS011;38105;52.968;5.974;2023-04-15T09:15:52;5.88;;;3.20;;
52106;SDS011;38105;52.968;5.974;2023-04-15T09:18:29;6.25;;;4.20;;
52106;SDS011;38105;52.968;5.974;2023-04-15T09:20:56;5.70;;;3.67;;
52106;SDS011;38105;52.968;5.974;2023-04-15T09:23:33;6.35;;;4.15;;
52106;SDS011;38105;52.968;5.974;2023-04-15T09:26:03;7.30;;;3.80;;
52106;SDS011;38105;52.968;5.974;2023-04-15T09:28:29;10.25;;;3.90;;
52106;SDS011;38105;52.968;5.974;2023-04-15T09:30:55;6.32;;;3.55;;
52106;SDS011;38105;52.968;5.974;2023-04-15T09:33:22;5.53;;;3.35;;
52106;SDS011;38105;52.968;5.974;2023-04-15T09:38:24;4.65;;;3.08;;
52106;SDS011;38105;52.968;5.974;2023-04-15T09:40:50;5.50;;;3.38;;
52106;SDS011;38105;52.968;5.974;2023-04-15T09:43:16;5.65;;;3.30;;
52106;SDS011;38105;52.968;5.974;2023-04-15T09:45:52;5.07;;;2.90;;
52106;SDS011;38105;52.968;5.974;2023-04-15T09:48:22;6.50;;;3.20;;
52106;SDS011;38105;52.968;5.974;2023-04-15T09:50:52;6.30;;;3.20;;
52106;SDS011;38105;52.968;5.974;2023-04-15T09:53:22;7.57;;;3.08;;
52106;SDS011;38105;52.968;5.974;2023-04-15T09:55:52;5.65;;;2.75;;
52106;SDS011;38105;52.968;5.974;2023-04-15T10:00:50;6.38;;;2.85;;
52106;SDS011;38105;52.968;5.974;2023-04-15T10:03:20;4.47;;;2.50;;
52106;SDS011;38105;52.968;5.974;2023-04-15T10:05:59;8.25;;;2.55;;
52106;SDS011;38105;52.968;5.974;2023-04-15T10:08:29;4.45;;;2.22;;
52106;SDS011;38105;52.968;5.974;2023-04-15T10:10:57;3.10;;;1.80;;
52106;SDS011;38105;52.968;5.974;2023-04-15T10:13:23;3.78;;;1.58;;
52106;SDS011;38105;52.968;5.974;2023-04-15T10:15:57;4.78;;;1.50;;
52106;SDS011;38105;52.968;5.974;2023-04-15T10:18:29;3.70;;;1.77;;
52106;SDS011;38105;52.968;5.974;2023-04-15T10:20:59;5.80;;;1.77;;
52106;SDS011;38105;52.968;5.974;2023-04-15T10:23:25;3.90;;;1.40;;
52106;SDS011;38105;52.968;5.974;2023-04-15T10:25:52;5.20;;;1.42;;
52106;SDS011;38105;52.968;5.974;2023-04-15T10:28:20;2.58;;;1.05;;
52106;SDS011;38105;52.968;5.974;2023-04-15T10:30:49;4.13;;;1.25;;
52106;SDS011;38105;52.968;5.974;2023-04-15T10:33:17;4.93;;;1.05;;
52106;SDS011;38105;52.968;5.974;2023-04-15T10:35:45;3.17;;;0.88;;
52106;SDS011;38105;52.968;5.974;2023-04-15T10:38:56;2.88;;;1.10;;
52106;SDS011;38105;52.968;5.974;2023-04-15T10:43:59;4.90;;;1.10;;
52106;SDS011;38105;52.968;5.974;2023-04-15T10:46:39;3.83;;;1.10;;
52106;SDS011;38105;52.968;5.974;2023-04-15T10:49:10;3.17;;;0.90;;
52106;SDS011;38105;52.968;5.974;2023-04-15T10:51:38;3.50;;;0.95;;
52106;SDS011;38105;52.968;5.974;2023-04-15T10:54:08;2.90;;;1.00;;
52106;SDS011;38105;52.968;5.974;2023-04-15T10:56:40;3.65;;;1.10;;
52106;SDS011;38105;52.968;5.974;2023-04-15T10:59:09;4.55;;;1.40;;
52106;SDS011;38105;52.968;5.974;2023-04-15T11:01:51;2.50;;;1.00;;
52106;SDS011;38105;52.968;5.974;2023-04-15T11:07:38;2.38;;;0.80;;
52106;SDS011;38105;52.968;5.974;2023-04-15T11:12:44;2.55;;;0.90;;
52106;SDS011;38105;52.968;5.974;2023-04-15T11:18:19;2.28;;;0.95;;
52106;SDS011;38105;52.968;5.974;2023-04-15T11:23:26;5.07;;;1.23;;
52106;SDS011;38105;52.968;5.974;2023-04-15T11:26:13;2.67;;;0.80;;
52106;SDS011;38105;52.968;5.974;2023-04-15T11:28:40;2.55;;;1.10;;
52106;SDS011;38105;52.968;5.974;2023-04-15T11:31:08;1.90;;;1.00;;
52106;SDS011;38105;52.968;5.974;2023-04-15T11:33:45;4.13;;;1.20;;
52106;SDS011;38105;52.968;5.974;2023-04-15T11:36:17;3.58;;;1.38;;
52106;SDS011;38105;52.968;5.974;2023-04-15T11:38:43;3.55;;;1.27;;
52106;SDS011;38105;52.968;5.974;2023-04-15T11:41:11;4.53;;;1.40;;
52106;SDS011;38105;52.968;5.974;2023-04-15T11:43:37;3.65;;;1.30;;
52106;SDS011;38105;52.968;5.974;2023-04-15T11:46:02;3.78;;;1.50;;
52106;SDS011;38105;52.968;5.974;2023-04-15T11:48:29;4.45;;;1.20;;
52106;SDS011;38105;52.968;5.974;2023-04-15T11:50:57;6.60;;;1.05;;
52106;SDS011;38105;52.968;5.974;2023-04-15T11:53:37;4.43;;;1.10;;
52106;SDS011;38105;52.968;5.974;2023-04-15T11:56:08;4.97;;;1.65;;
52106;SDS011;38105;52.968;5.974;2023-04-15T11:58:40;5.45;;;1.27;;
52106;SDS011;38105;52.968;5.974;2023-04-15T12:01:07;6.10;;;1.65;;
52106;SDS011;38105;52.968;5.974;2023-04-15T12:03:36;3.72;;;1.17;;
52106;SDS011;38105;52.968;5.974;2023-04-15T12:11:20;7.25;;;1.98;;
52106;SDS011;38105;52.968;5.974;2023-04-15T12:13:59;8.80;;;1.77;;
52106;SDS011;38105;52.968;5.974;2023-04-15T12:16:28;9.88;;;1.73;;
52106;SDS011;38105;52.968;5.974;2023-04-15T12:18:55;7.90;;;1.83;;
52106;SDS011;38105;52.968;5.974;2023-04-15T12:21:23;5.05;;;1.52;;
52106;SDS011;38105;52.968;5.974;2023-04-15T12:23:50;6.05;;;1.25;;
52106;SDS011;38105;52.968;5.974;2023-04-15T12:26:17;7.70;;;1.42;;
52106;SDS011;38105;52.968;5.974;2023-04-15T12:29:03;7.72;;;1.95;;
52106;SDS011;38105;52.968;5.974;2023-04-15T12:31:31;9.50;;;1.70;;
52106;SDS011;38105;52.968;5.974;2023-04-15T12:33:57;14.60;;;2.17;;
52106;SDS011;38105;52.968;5.974;2023-04-15T12:36:24;12.15;;;6.10;;
52106;SDS011;38105;52.968;5.974;2023-04-15T12:38:50;12.85;;;2.47;;
52106;SDS011;38105;52.968;5.974;2023-04-15T12:41:16;8.98;;;2.10;;
52106;SDS011;38105;52.968;5.974;2023-04-15T12:43:43;8.45;;;2.08;;
52106;SDS011;38105;52.968;5.974;2023-04-15T12:46:09;8.90;;;1.65;;
52106;SDS011;38105;52.968;5.974;2023-04-15T12:48:35;8.82;;;3.28;;
52106;SDS011;38105;52.968;5.974;2023-04-15T12:51:01;7.20;;;1.88;;
52106;SDS011;38105;52.968;5.974;2023-04-15T12:53:26;7.43;;;1.70;;
52106;SDS011;38105;52.968;5.974;2023-04-15T12:55:52;14.38;;;5.72;;
52106;SDS011;38105;52.968;5.974;2023-04-15T12:58:18;8.70;;;1.98;;
52106;SDS011;38105;52.968;5.974;2023-04-15T13:00:44;8.07;;;2.05;;
52106;SDS011;38105;52.968;5.974;2023-04-15T13:03:09;9.70;;;2.28;;
52106;SDS011;38105;52.968;5.974;2023-04-15T13:05:35;9.93;;;1.75;;
52106;SDS011;38105;52.968;5.974;2023-04-15T13:08:03;12.70;;;1.67;;
52106;SDS011;38105;52.968;5.974;2023-04-15T13:10:29;8.90;;;1.45;;
52106;SDS011;38105;52.968;5.974;2023-04-15T13:12:55;15.05;;;2.65;;
52106;SDS011;38105;52.968;5.974;2023-04-15T13:15:21;7.90;;;1.45;;
52106;SDS011;38105;52.968;5.974;2023-04-15T13:17:47;12.30;;;2.22;;
52106;SDS011;38105;52.968;5.974;2023-04-15T13:20:13;12.05;;;1.60;;
52106;SDS011;38105;52.968;5.974;2023-04-15T13:22:39;9.57;;;2.08;;
52106;SDS011;38105;52.968;5.974;2023-04-15T13:25:05;14.13;;;1.77;;
52106;SDS011;38105;52.968;5.974;2023-04-15T13:27:32;7.40;;;1.52;;
52106;SDS011;38105;52.968;5.974;2023-04-15T13:29:58;6.45;;;1.17;;
52106;SDS011;38105;52.968;5.974;2023-04-15T13:32:23;5.57;;;1.10;;
52106;SDS011;38105;52.968;5.974;2023-04-15T13:34:49;9.23;;;1.50;;
52106;SDS011;38105;52.968;5.974;2023-04-15T13:37:15;7.13;;;1.50;;
52106;SDS011;38105;52.968;5.974;2023-04-15T13:39:41;6.15;;;1.10;;
52106;SDS011;38105;52.968;5.974;2023-04-15T13:42:07;8.13;;;1.20;;
52106;SDS011;38105;52.968;5.974;2023-04-15T13:44:33;11.32;;;1.40;;
52106;SDS011;38105;52.968;5.974;2023-04-15T13:46:59;10.32;;;1.73;;
52106;SDS011;38105;52.968;5.974;2023-04-15T13:49:25;14.70;;;2.45;;
52106;SDS011;38105;52.968;5.974;2023-04-15T13:51:50;12.45;;;1.60;;
52106;SDS011;38105;52.968;5.974;2023-04-15T13:54:16;11.23;;;1.50;;
52106;SDS011;38105;52.968;5.974;2023-04-15T13:56:42;14.27;;;2.10;;
52106;SDS011;38105;52.968;5.974;2023-04-15T13:59:07;10.38;;;1.38;;
52106;SDS011;38105;52.968;5.974;2023-04-15T14:01:33;13.32;;;2.10;;
52106;SDS011;38105;52.968;5.974;2023-04-15T14:03:59;13.10;;;1.95;;
52106;SDS011;38105;52.968;5.974;2023-04-15T14:06:25;15.02;;;1.52;;
52106;SDS011;38105;52.968;5.974;2023-04-15T14:08:55;9.02;;;1.85;;
52106;SDS011;38105;52.968;5.974;2023-04-15T14:11:21;9.88;;;1.60;;
52106;SDS011;38105;52.968;5.974;2023-04-15T14:13:46;10.05;;;1.90;;
52106;SDS011;38105;52.968;5.974;2023-04-15T14:16:12;10.95;;;1.98;;
52106;SDS011;38105;52.968;5.974;2023-04-15T14:18:38;11.57;;;2.03;;
52106;SDS011;38105;52.968;5.974;2023-04-15T14:21:04;12.63;;;1.65;;
52106;SDS011;38105;52.968;5.974;2023-04-15T14:23:31;13.30;;;1.80;;
52106;SDS011;38105;52.968;5.974;2023-04-15T14:25:56;11.82;;;2.00;;
52106;SDS011;38105;52.968;5.974;2023-04-15T14:28:23;12.70;;;2.40;;
52106;SDS011;38105;52.968;5.974;2023-04-15T14:30:48;12.95;;;1.92;;
52106;SDS011;38105;52.968;5.974;2023-04-15T14:33:14;13.40;;;1.88;;
52106;SDS011;38105;52.968;5.974;2023-04-15T14:35:40;14.07;;;1.60;;
52106;SDS011;38105;52.968;5.974;2023-04-15T14:38:06;15.25;;;2.63;;
52106;SDS011;38105;52.968;5.974;2023-04-15T14:40:34;14.70;;;1.85;;
52106;SDS011;38105;52.968;5.974;2023-04-15T14:43:00;8.23;;;1.45;;
52106;SDS011;38105;52.968;5.974;2023-04-15T14:45:26;8.27;;;1.30;;
52106;SDS011;38105;52.968;5.974;2023-04-15T14:47:51;5.90;;;1.30;;
52106;SDS011;38105;52.968;5.974;2023-04-15T14:50:17;11.40;;;1.33;;
52106;SDS011;38105;52.968;5.974;2023-04-15T14:52:43;10.02;;;1.70;;
52106;SDS011;38105;52.968;5.974;2023-04-15T14:55:10;18.92;;;2.10;;
52106;SDS011;38105;52.968;5.974;2023-04-15T14:57:37;9.02;;;1.58;;
52106;SDS011;38105;52.968;5.974;2023-04-15T15:00:04;9.40;;;1.50;;
52106;SDS011;38105;52.968;5.974;2023-04-15T15:02:31;9.85;;;1.85;;